Buoy 54955

sailwx.info

Track history (hours):
 
Tides and Currents Weather Stations Pressure Air Temp Water Temp Dewpoint Dewpoint Depression Visibility Wind Speed Wind Dir Waves Ship Positions

Luruyu54955

Last reported at 2016-Jul-26 18:00 UTC. Time now 2016-Jul-26 19:56 UTC.
Position S 34°27' W 152°16'.

Length 27 m.

Type: Fishing. MMSI: 412330945.

Barometer 1010.8 mb
Water temperature 15.8 ° C

Date/timePositionNaut miles runAvg speedWind from/ knotsBaromVisibWave heightAir tempDewpointWater temp
2016-Jul-26 18:00S 34°27' W 152°16'0 0.4 1010.8 15.8
2016-Jul-26 17:00S 34°27' W 152°16'0 0.4 1010.6 15.8
2016-Jul-26 16:00S 34°27' W 152°16'0 0.3 1010.5 15.8
2016-Jul-26 15:00S 34°27' W 152°17'0 0.0 1010.3 15.8
2016-Jul-26 14:00S 34°27' W 152°17'0 0.1 1010.3 15.8
2016-Jul-26 12:00S 34°27' W 152°17'2 0.5 1010.5 15.8
2016-Jul-26 09:00S 34°27' W 152°15'0 0.0 1011.1 16.0
2016-Jul-26 08:00S 34°27' W 152°15'2 1.9 1011.7 16.1
2016-Jul-26 07:00S 34°27' W 152°13'1 0.2 1011.5 16.1
2016-Jul-26 04:00S 34°28' W 152°12'0 0.4 1010.0 16.2
2016-Jul-26 03:00S 34°28' W 152°12'1 0.7 1010.4 16.1
2016-Jul-26 01:00S 34°28' W 152°13'1 0.2 1009.5 15.9
2016-Jul-25 19:00S 34°28' W 152°15'66148509.7 1013.6 15.8
2016-Jul-25 18:13N 36°29' E 123°23'661429688.6
2016-Jul-25 18:00S 34°28' W 152°15'66148236.4 1013.9 15.7
2016-Jul-25 17:11N 36°29' E 123°22'661333577.4
2016-Jul-25 17:00S 34°27' W 152°16'0 0.0 1014.5 15.8
2016-Jul-25 16:00S 34°27' W 152°16'0 0.3 1014.7 15.9
2016-Jul-25 15:00S 34°28' W 152°16'66102697.1 1015.4 16.0
2016-Jul-25 12:32N 36°28' E 123°25'661012036.3
2016-Jul-25 12:00S 34°27' W 152°16'66079964.0 1017.6 16.2
2016-Jul-25 11:20N 36°24' E 123°25'66064940.9
2016-Jul-25 10:00S 34°26' W 152°16'66003647.3 1019.4 16.2
2016-Jul-25 08:11N 36°15' E 123°27'660034633.4
2016-Jul-25 08:00S 34°26' W 152°16'1 0.3 1021.2 16.2
2016-Jul-25 06:00S 34°25' W 152°16'1 0.5 1022.5 16.2
2016-Jul-25 05:00S 34°25' W 152°17'1 0.9 1022.7 16.2
2016-Jul-25 04:00S 34°25' W 152°16'1 0.7 1022.6 16.2
2016-Jul-25 03:00S 34°24' W 152°15'0 0.2 1023.2 16.3
2016-Jul-25 01:00S 34°25' W 152°16'660510832.1 1024.3 16.3
2016-Jul-25 00:23N 36°22' E 123°25'66044750.2
2016-Jul-24 23:00S 34°24' W 152°16'660514203.4 1025.9 16.3
2016-Jul-24 22:32N 36°19' E 123°22'7 6.8
2016-Jul-24 21:27N 36°22' E 123°14'8 8.3
2016-Jul-24 20:33N 36°25' E 123°05'662111990.0
2016-Jul-24 20:00S 34°23' W 152°15'663015068.0 1027.9 16.2
2016-Jul-24 19:33N 36°28' E 122°56'662911838.0
2016-Jul-24 19:00S 34°22' W 152°15'663913503.6 1028.0 16.2
2016-Jul-24 18:30N 36°31' E 122°46'664013062.3
2016-Jul-24 18:00S 34°22' W 152°14'665014481.8 1028.3 16.2
2016-Jul-24 17:32N 36°34' E 122°36'665012295.0
2016-Jul-24 17:00S 34°22' W 152°14'0 0.4 1028.2 16.2
2016-Jul-24 16:00S 34°22' W 152°14'1 0.4 1028.0 16.2
2016-Jul-24 13:00S 34°21' W 152°13'1 0.5 1027.8 16.2
2016-Jul-24 12:00S 34°21' W 152°13'1 0.2 1028.4 16.2
2016-Jul-24 07:00S 34°20' W 152°12'0 0.1 1029.7 16.2
2016-Jul-24 04:00S 34°20' W 152°12'0 0.2 1028.7 16.3
2016-Jul-24 03:00S 34°20' W 152°12'0 0.3 1028.2 16.3
2016-Jul-24 02:00S 34°20' W 152°12'0 0.1 1028.1 16.3
2016-Jul-24 01:00S 34°20' W 152°12'1 0.1 1028.4 16.3
2016-Jul-23 18:00S 34°20' W 152°11'0 0.5 1029.6 16.2
2016-Jul-23 17:00S 34°20' W 152°10'1 1.4 1028.9 16.2
2016-Jul-23 16:00S 34°21' W 152°09'1 0.8 1028.6 16.2
2016-Jul-23 15:00S 34°21' W 152°10'1 0.5 1028.1 16.2
2016-Jul-23 14:00S 34°21' W 152°11'66528686.4 1028.1 16.2
2016-Jul-23 13:14N 36°29' E 122°31'665228408.5
2016-Jul-23 13:00S 34°21' W 152°11'0 0.3 1028.0 16.2
2016-Jul-23 12:00S 34°21' W 152°11'1 0.2 1027.7 16.1
2016-Jul-23 07:00S 34°22' W 152°11'1 0.2 1026.0 16.2
2016-Jul-23 04:00S 34°22' W 152°11'1 0.6 1024.3 16.1
2016-Jul-23 03:00S 34°23' W 152°10'0 0.2 1023.3 16.1
2016-Jul-23 01:00S 34°23' W 152°10'4 3.6 1022.0 16.0
2016-Jul-23 00:00S 34°26' W 152°10'0 0.0 1021.7 16.0
2016-Jul-22 19:00S 34°26' W 152°10'0 0.0 1018.7 16.0
2016-Jul-22 16:00S 34°26' W 152°10'2 1.6 1014.6 15.5
2016-Jul-22 15:00S 34°27' W 152°08'2 1.6 1013.6 15.5
2016-Jul-22 14:00S 34°28' W 152°10'1 0.4 1012.8 15.6
2016-Jul-22 11:00S 34°29' W 152°11'3 0.6 1011.0 15.7
2016-Jul-22 06:00S 34°32' W 152°13'1 0.6 1009.6 15.8
2016-Jul-22 04:00S 34°33' W 152°14'1 0.6 1008.2 15.8
2016-Jul-22 03:00S 34°33' W 152°14'1 0.6 1007.9 15.8
2016-Jul-22 01:00S 34°33' W 152°15'1 1.2 1007.3 16.0
2016-Jul-22 00:00S 34°33' W 152°17'1 0.1 1007.5 16.0
2016-Jul-21 19:00S 34°34' W 152°17'1 1.4 1010.6 15.8
2016-Jul-21 18:00S 34°34' W 152°18'0 0.0 1010.0 15.8
2016-Jul-21 17:00S 34°34' W 152°18'1 0.6 1009.4 15.8
2016-Jul-21 16:00S 34°34' W 152°17'1 0.6 1008.9 15.8
2016-Jul-21 15:00S 34°34' W 152°17'2 1.8 1008.3 15.8
2016-Jul-21 14:00S 34°35' W 152°19'0 0.0 1007.9 15.8
2016-Jul-21 13:00S 34°35' W 152°19'1 0.4 1007.6 15.8
2016-Jul-21 11:00S 34°35' W 152°20'2 0.7 1007.4 15.9
2016-Jul-21 08:00S 34°36' W 152°22'1 1.2 1007.0 15.9
2016-Jul-21 07:00S 34°36' W 152°24'0 0.0 1006.9 15.9
2016-Jul-21 06:00S 34°36' W 152°24'2 1.0 1006.8 15.9
2016-Jul-21 04:00S 34°36' W 152°26'0 0.0 1007.0 15.9
2016-Jul-21 03:00S 34°36' W 152°26'1 1.1 1007.3 16.0
2016-Jul-21 02:00S 34°36' W 152°27'0 0.0 1007.7 16.0
2016-Jul-21 01:00S 34°36' W 152°27'0 0.0 1007.8 16.1
2016-Jul-21 00:00S 34°36' W 152°27'2 0.5 1008.2 16.2
2016-Jul-20 20:00S 34°36' W 152°29'0 0.5 1012.0 16.1
2016-Jul-20 19:00S 34°36' W 152°29'1 0.2 1012.2 16.1
2016-Jul-20 16:00S 34°35' W 152°30'0 0.0 1012.1 16.0
2016-Jul-20 15:00S 34°35' W 152°30'0 0.4 1012.6 16.0
2016-Jul-20 14:00S 34°36' W 152°30'1 0.5 1012.9 16.0
2016-Jul-20 11:00S 34°37' W 152°30'1 0.3 1013.7 16.0
2016-Jul-20 07:00S 34°38' W 152°31'1 0.6 1014.2 16.0
2016-Jul-20 06:00S 34°38' W 152°32'0 0.2 1014.3 16.0
2016-Jul-20 05:00S 34°38' W 152°32'0 0.2 1014.3 16.0
2016-Jul-20 04:00S 34°38' W 152°32'1 0.6 1014.0 16.0
2016-Jul-20 03:00S 34°38' W 152°31'1 1.4 1013.6 16.0
2016-Jul-20 02:00S 34°37' W 152°33'1 0.3 1013.3 16.0
2016-Jul-20 00:00S 34°37' W 152°32'1 0.2 1013.0 16.0
2016-Jul-19 19:00S 34°37' W 152°33'1 0.8 1013.5 16.0
2016-Jul-19 18:00S 34°38' W 152°34'0 0.0 1012.8 15.9
2016-Jul-19 17:00S 34°38' W 152°34'1 0.5 1012.1 15.9
2016-Jul-19 15:00S 34°37' W 152°33'0 0.0 1011.8 15.9
2016-Jul-19 14:00S 34°37' W 152°33'1 0.5 1011.9 15.9
2016-Jul-19 12:00S 34°38' W 152°34'1 0.2 1011.7 15.9
2016-Jul-19 09:00S 34°38' W 152°33'1 0.7 1013.2 15.9
2016-Jul-19 08:00S 34°38' W 152°34'0 0.1 1013.1 15.9
2016-Jul-19 07:00S 34°38' W 152°34'0 0.4 1013.5 15.9
2016-Jul-19 06:00S 34°38' W 152°34'0 0.2 1013.6 15.9
2016-Jul-19 05:00S 34°38' W 152°34'0 0.4 1013.2 15.9
2016-Jul-19 04:00S 34°37' W 152°34'1 0.7 1012.8 15.9
2016-Jul-19 03:00S 34°37' W 152°34'0 0.0 1012.2 15.9
2016-Jul-19 02:00S 34°37' W 152°34'0 0.2 1012.0 15.9
2016-Jul-19 00:00S 34°37' W 152°34'2 0.3 1011.9 15.9
2016-Jul-18 19:00S 34°35' W 152°33'0 0.5 1013.4 15.9
2016-Jul-18 18:00S 34°36' W 152°33'1 0.9 1013.0 15.9
2016-Jul-18 17:00S 34°35' W 152°32'2 0.8 1012.3 16.0
2016-Jul-18 15:00S 34°34' W 152°33'0 0.0 1012.2 16.0
2016-Jul-18 14:00S 34°34' W 152°33'0 0.0 1012.2 16.0
2016-Jul-18 12:00S 34°34' W 152°33'0 0.1 1012.8 16.0
2016-Jul-18 08:00S 34°34' W 152°33'0 0.1 1012.9 15.9
2016-Jul-18 07:00S 34°34' W 152°33'1 0.9 1012.9 15.9
2016-Jul-18 06:00S 34°33' W 152°34'0 0.1 1012.6 15.9
2016-Jul-18 05:00S 34°33' W 152°34'1 0.5 1012.1 15.9
2016-Jul-18 03:00S 34°32' W 152°33'1 0.4 1011.3 15.9
2016-Jul-18 01:00S 34°32' W 152°33'0 0.1 1010.2 15.9
2016-Jul-17 19:00S 34°32' W 152°33'2 1.8 1009.4 15.8
2016-Jul-17 18:00S 34°32' W 152°35'1 1.0 1008.6 15.8
2016-Jul-17 17:00S 34°32' W 152°34'1 0.5 1007.6 15.8
2016-Jul-17 16:00S 34°32' W 152°34'1 0.7 1006.6 15.8
2016-Jul-17 14:00S 34°33' W 152°35'0 0.2 1004.8 15.9
2016-Jul-17 12:00S 34°33' W 152°36'2 0.5 1004.0 15.9
2016-Jul-17 08:00S 34°34' W 152°38'1 0.6 1001.8 16.0
2016-Jul-17 07:00S 34°34' W 152°39'2 0.7 1001.3 16.0
2016-Jul-17 04:00S 34°36' W 152°39'0 0.0 999.6 16.0
2016-Jul-17 03:00S 34°36' W 152°39'2 2.4 999.3 16.0
2016-Jul-17 02:00S 34°38' W 152°41'0 0.0 1000.0 16.0
2016-Jul-17 01:00S 34°38' W 152°41'1 0.2 1000.0 16.1
2016-Jul-16 18:00S 34°39' W 152°41'   1003.0 16.2
Track history (hours):
 
Tides and Currents Weather Stations Pressure Air Temp Water Temp Dewpoint Dewpoint Depression Visibility Wind Speed Wind Dir Waves Ship Positions

Luruyu54955

Last reported at 2016-Jul-26 18:00 UTC. Time now 2016-Jul-26 19:56 UTC.
Position S 34°27' W 152°16'.

Length 27 m.

Type: Fishing. MMSI: 412330945.

Barometer 1010.8 mb
Water temperature 15.8 ° C

Date/timePositionNaut miles runAvg speedWind from/ knotsBaromVisibWave heightAir tempDewpointWater temp
2016-Jul-26 18:00S 34°27' W 152°16'0 0.4 1010.8 15.8
2016-Jul-26 17:00S 34°27' W 152°16'0 0.4 1010.6 15.8
2016-Jul-26 16:00S 34°27' W 152°16'0 0.3 1010.5 15.8
2016-Jul-26 15:00S 34°27' W 152°17'0 0.0 1010.3 15.8
2016-Jul-26 14:00S 34°27' W 152°17'0 0.1 1010.3 15.8
2016-Jul-26 12:00S 34°27' W 152°17'2 0.5 1010.5 15.8
2016-Jul-26 09:00S 34°27' W 152°15'0 0.0 1011.1 16.0
2016-Jul-26 08:00S 34°27' W 152°15'2 1.9 1011.7 16.1
2016-Jul-26 07:00S 34°27' W 152°13'1 0.2 1011.5 16.1
2016-Jul-26 04:00S 34°28' W 152°12'0 0.4 1010.0 16.2
2016-Jul-26 03:00S 34°28' W 152°12'1 0.7 1010.4 16.1
2016-Jul-26 01:00S 34°28' W 152°13'1 0.2 1009.5 15.9
2016-Jul-25 19:00S 34°28' W 152°15'66148509.7 1013.6 15.8
2016-Jul-25 18:13N 36°29' E 123°23'661429688.6
2016-Jul-25 18:00S 34°28' W 152°15'66148236.4 1013.9 15.7
2016-Jul-25 17:11N 36°29' E 123°22'661333577.4
2016-Jul-25 17:00S 34°27' W 152°16'0 0.0 1014.5 15.8
2016-Jul-25 16:00S 34°27' W 152°16'0 0.3 1014.7 15.9
2016-Jul-25 15:00S 34°28' W 152°16'66102697.1 1015.4 16.0
2016-Jul-25 12:32N 36°28' E 123°25'661012036.3
2016-Jul-25 12:00S 34°27' W 152°16'66079964.0 1017.6 16.2
2016-Jul-25 11:20N 36°24' E 123°25'66064940.9
2016-Jul-25 10:00S 34°26' W 152°16'66003647.3 1019.4 16.2
2016-Jul-25 08:11N 36°15' E 123°27'660034633.4
2016-Jul-25 08:00S 34°26' W 152°16'1 0.3 1021.2 16.2
2016-Jul-25 06:00S 34°25' W 152°16'1 0.5 1022.5 16.2
2016-Jul-25 05:00S 34°25' W 152°17'1 0.9 1022.7 16.2
2016-Jul-25 04:00S 34°25' W 152°16'1 0.7 1022.6 16.2
2016-Jul-25 03:00S 34°24' W 152°15'0 0.2 1023.2 16.3
2016-Jul-25 01:00S 34°25' W 152°16'660510832.1 1024.3 16.3
2016-Jul-25 00:23N 36°22' E 123°25'66044750.2
2016-Jul-24 23:00S 34°24' W 152°16'660514203.4 1025.9 16.3
2016-Jul-24 22:32N 36°19' E 123°22'7 6.8
2016-Jul-24 21:27N 36°22' E 123°14'8 8.3
2016-Jul-24 20:33N 36°25' E 123°05'662111990.0
2016-Jul-24 20:00S 34°23' W 152°15'663015068.0 1027.9 16.2
2016-Jul-24 19:33N 36°28' E 122°56'662911838.0
2016-Jul-24 19:00S 34°22' W 152°15'663913503.6 1028.0 16.2
2016-Jul-24 18:30N 36°31' E 122°46'664013062.3
2016-Jul-24 18:00S 34°22' W 152°14'665014481.8 1028.3 16.2
2016-Jul-24 17:32N 36°34' E 122°36'665012295.0
2016-Jul-24 17:00S 34°22' W 152°14'0 0.4 1028.2 16.2
2016-Jul-24 16:00S 34°22' W 152°14'1 0.4 1028.0 16.2
2016-Jul-24 13:00S 34°21' W 152°13'1 0.5 1027.8 16.2
2016-Jul-24 12:00S 34°21' W 152°13'1 0.2 1028.4 16.2
2016-Jul-24 07:00S 34°20' W 152°12'0 0.1 1029.7 16.2
2016-Jul-24 04:00S 34°20' W 152°12'0 0.2 1028.7 16.3
2016-Jul-24 03:00S 34°20' W 152°12'0 0.3 1028.2 16.3
2016-Jul-24 02:00S 34°20' W 152°12'0 0.1 1028.1 16.3
2016-Jul-24 01:00S 34°20' W 152°12'1 0.1 1028.4 16.3
2016-Jul-23 18:00S 34°20' W 152°11'0 0.5 1029.6 16.2
2016-Jul-23 17:00S 34°20' W 152°10'1 1.4 1028.9 16.2
2016-Jul-23 16:00S 34°21' W 152°09'1 0.8 1028.6 16.2
2016-Jul-23 15:00S 34°21' W 152°10'1 0.5 1028.1 16.2
2016-Jul-23 14:00S 34°21' W 152°11'66528686.4 1028.1 16.2
2016-Jul-23 13:14N 36°29' E 122°31'665228408.5
2016-Jul-23 13:00S 34°21' W 152°11'0 0.3 1028.0 16.2
2016-Jul-23 12:00S 34°21' W 152°11'1 0.2 1027.7 16.1
2016-Jul-23 07:00S 34°22' W 152°11'1 0.2 1026.0 16.2
2016-Jul-23 04:00S 34°22' W 152°11'1 0.6 1024.3 16.1
2016-Jul-23 03:00S 34°23' W 152°10'0 0.2 1023.3 16.1
2016-Jul-23 01:00S 34°23' W 152°10'4 3.6 1022.0 16.0
2016-Jul-23 00:00S 34°26' W 152°10'0 0.0 1021.7 16.0
2016-Jul-22 19:00S 34°26' W 152°10'0 0.0 1018.7 16.0
2016-Jul-22 16:00S 34°26' W 152°10'2 1.6 1014.6 15.5
2016-Jul-22 15:00S 34°27' W 152°08'2 1.6 1013.6 15.5
2016-Jul-22 14:00S 34°28' W 152°10'1 0.4 1012.8 15.6
2016-Jul-22 11:00S 34°29' W 152°11'3 0.6 1011.0 15.7
2016-Jul-22 06:00S 34°32' W 152°13'1 0.6 1009.6 15.8
2016-Jul-22 04:00S 34°33' W 152°14'1 0.6 1008.2 15.8
2016-Jul-22 03:00S 34°33' W 152°14'1 0.6 1007.9 15.8
2016-Jul-22 01:00S 34°33' W 152°15'1 1.2 1007.3 16.0
2016-Jul-22 00:00S 34°33' W 152°17'1 0.1 1007.5 16.0
2016-Jul-21 19:00S 34°34' W 152°17'1 1.4 1010.6 15.8
2016-Jul-21 18:00S 34°34' W 152°18'0 0.0 1010.0 15.8
2016-Jul-21 17:00S 34°34' W 152°18'1 0.6 1009.4 15.8
2016-Jul-21 16:00S 34°34' W 152°17'1 0.6 1008.9 15.8
2016-Jul-21 15:00S 34°34' W 152°17'2 1.8 1008.3 15.8
2016-Jul-21 14:00S 34°35' W 152°19'0 0.0 1007.9 15.8
2016-Jul-21 13:00S 34°35' W 152°19'1 0.4 1007.6 15.8
2016-Jul-21 11:00S 34°35' W 152°20'2 0.7 1007.4 15.9
2016-Jul-21 08:00S 34°36' W 152°22'1 1.2 1007.0 15.9
2016-Jul-21 07:00S 34°36' W 152°24'0 0.0 1006.9 15.9
2016-Jul-21 06:00S 34°36' W 152°24'2 1.0 1006.8 15.9
2016-Jul-21 04:00S 34°36' W 152°26'0 0.0 1007.0 15.9
2016-Jul-21 03:00S 34°36' W 152°26'1 1.1 1007.3 16.0
2016-Jul-21 02:00S 34°36' W 152°27'0 0.0 1007.7 16.0
2016-Jul-21 01:00S 34°36' W 152°27'0 0.0 1007.8 16.1
2016-Jul-21 00:00S 34°36' W 152°27'2 0.5 1008.2 16.2
2016-Jul-20 20:00S 34°36' W 152°29'0 0.5 1012.0 16.1
2016-Jul-20 19:00S 34°36' W 152°29'1 0.2 1012.2 16.1
2016-Jul-20 16:00S 34°35' W 152°30'0 0.0 1012.1 16.0
2016-Jul-20 15:00S 34°35' W 152°30'0 0.4 1012.6 16.0
2016-Jul-20 14:00S 34°36' W 152°30'1 0.5 1012.9 16.0
2016-Jul-20 11:00S 34°37' W 152°30'1 0.3 1013.7 16.0
2016-Jul-20 07:00S 34°38' W 152°31'1 0.6 1014.2 16.0
2016-Jul-20 06:00S 34°38' W 152°32'0 0.2 1014.3 16.0
2016-Jul-20 05:00S 34°38' W 152°32'0 0.2 1014.3 16.0
2016-Jul-20 04:00S 34°38' W 152°32'1 0.6 1014.0 16.0
2016-Jul-20 03:00S 34°38' W 152°31'1 1.4 1013.6 16.0
2016-Jul-20 02:00S 34°37' W 152°33'1 0.3 1013.3 16.0
2016-Jul-20 00:00S 34°37' W 152°32'1 0.2 1013.0 16.0
2016-Jul-19 19:00S 34°37' W 152°33'1 0.8 1013.5 16.0
2016-Jul-19 18:00S 34°38' W 152°34'0 0.0 1012.8 15.9
2016-Jul-19 17:00S 34°38' W 152°34'1 0.5 1012.1 15.9
2016-Jul-19 15:00S 34°37' W 152°33'0 0.0 1011.8 15.9
2016-Jul-19 14:00S 34°37' W 152°33'1 0.5 1011.9 15.9
2016-Jul-19 12:00S 34°38' W 152°34'1 0.2 1011.7 15.9
2016-Jul-19 09:00S 34°38' W 152°33'1 0.7 1013.2 15.9
2016-Jul-19 08:00S 34°38' W 152°34'0 0.1 1013.1 15.9
2016-Jul-19 07:00S 34°38' W 152°34'0 0.4 1013.5 15.9
2016-Jul-19 06:00S 34°38' W 152°34'0 0.2 1013.6 15.9
2016-Jul-19 05:00S 34°38' W 152°34'0 0.4 1013.2 15.9
2016-Jul-19 04:00S 34°37' W 152°34'1 0.7 1012.8 15.9
2016-Jul-19 03:00S 34°37' W 152°34'0 0.0 1012.2 15.9
2016-Jul-19 02:00S 34°37' W 152°34'0 0.2 1012.0 15.9
2016-Jul-19 00:00S 34°37' W 152°34'2 0.3 1011.9 15.9
2016-Jul-18 19:00S 34°35' W 152°33'0 0.5 1013.4 15.9
2016-Jul-18 18:00S 34°36' W 152°33'1 0.9 1013.0 15.9
2016-Jul-18 17:00S 34°35' W 152°32'2 0.8 1012.3 16.0
2016-Jul-18 15:00S 34°34' W 152°33'0 0.0 1012.2 16.0
2016-Jul-18 14:00S 34°34' W 152°33'0 0.0 1012.2 16.0
2016-Jul-18 12:00S 34°34' W 152°33'0 0.1 1012.8 16.0
2016-Jul-18 08:00S 34°34' W 152°33'0 0.1 1012.9 15.9
2016-Jul-18 07:00S 34°34' W 152°33'1 0.9 1012.9 15.9
2016-Jul-18 06:00S 34°33' W 152°34'0 0.1 1012.6 15.9
2016-Jul-18 05:00S 34°33' W 152°34'1 0.5 1012.1 15.9
2016-Jul-18 03:00S 34°32' W 152°33'1 0.4 1011.3 15.9
2016-Jul-18 01:00S 34°32' W 152°33'0 0.1 1010.2 15.9
2016-Jul-17 19:00S 34°32' W 152°33'2 1.8 1009.4 15.8
2016-Jul-17 18:00S 34°32' W 152°35'1 1.0 1008.6 15.8
2016-Jul-17 17:00S 34°32' W 152°34'1 0.5 1007.6 15.8
2016-Jul-17 16:00S 34°32' W 152°34'1 0.7 1006.6 15.8
2016-Jul-17 14:00S 34°33' W 152°35'0 0.2 1004.8 15.9
2016-Jul-17 12:00S 34°33' W 152°36'2 0.5 1004.0 15.9
2016-Jul-17 08:00S 34°34' W 152°38'1 0.6 1001.8 16.0
2016-Jul-17 07:00S 34°34' W 152°39'2 0.7 1001.3 16.0
2016-Jul-17 04:00S 34°36' W 152°39'0 0.0 999.6 16.0
2016-Jul-17 03:00S 34°36' W 152°39'2 2.4 999.3 16.0
2016-Jul-17 02:00S 34°38' W 152°41'0 0.0 1000.0 16.0
2016-Jul-17 01:00S 34°38' W 152°41'1 0.2 1000.0 16.1
2016-Jul-16 18:00S 34°39' W 152°41'   1003.0 16.2

Dump ship's entire track history